sensor_id;sensor_type;location;lat;lon;timestamp;temperature;humidity
32097;DHT22;18610;49.916;8.284;2024-02-26T00:01:13;7.90;99.90
32097;DHT22;18610;49.916;8.284;2024-02-26T00:03:39;7.90;99.90
32097;DHT22;18610;49.916;8.284;2024-02-26T00:06:09;7.90;99.90
32097;DHT22;18610;49.916;8.284;2024-02-26T00:08:35;7.90;99.90
32097;DHT22;18610;49.916;8.284;2024-02-26T00:11:02;7.90;99.90
32097;DHT22;18610;49.916;8.284;2024-02-26T00:13:29;7.90;99.90
32097;DHT22;18610;49.916;8.284;2024-02-26T00:15:55;7.90;99.90
32097;DHT22;18610;49.916;8.284;2024-02-26T00:18:22;7.80;99.90
32097;DHT22;18610;49.916;8.284;2024-02-26T00:20:49;7.80;99.90
32097;DHT22;18610;49.916;8.284;2024-02-26T00:23:17;7.80;99.90
32097;DHT22;18610;49.916;8.284;2024-02-26T00:25:43;7.80;99.90
32097;DHT22;18610;49.916;8.284;2024-02-26T00:28:10;7.80;99.90
32097;DHT22;18610;49.916;8.284;2024-02-26T00:30:38;7.80;99.90
32097;DHT22;18610;49.916;8.284;2024-02-26T00:33:04;7.80;99.90
32097;DHT22;18610;49.916;8.284;2024-02-26T00:35:31;7.80;99.90
32097;DHT22;18610;49.916;8.284;2024-02-26T00:37:58;7.80;99.90
32097;DHT22;18610;49.916;8.284;2024-02-26T00:40:27;7.80;99.90
32097;DHT22;18610;49.916;8.284;2024-02-26T00:42:54;7.80;99.90
32097;DHT22;18610;49.916;8.284;2024-02-26T00:45:21;7.80;99.90
32097;DHT22;18610;49.916;8.284;2024-02-26T00:47:47;7.80;99.90
32097;DHT22;18610;49.916;8.284;2024-02-26T00:50:15;7.80;99.90
32097;DHT22;18610;49.916;8.284;2024-02-26T00:52:42;7.80;99.90
32097;DHT22;18610;49.916;8.284;2024-02-26T00:55:09;7.80;99.90
32097;DHT22;18610;49.916;8.284;2024-02-26T00:57:37;7.80;99.90
32097;DHT22;18610;49.916;8.284;2024-02-26T01:00:05;7.80;99.90
32097;DHT22;18610;49.916;8.284;2024-02-26T01:02:34;7.80;99.90
32097;DHT22;18610;49.916;8.284;2024-02-26T01:05:00;7.80;99.90
32097;DHT22;18610;49.916;8.284;2024-02-26T01:07:28;7.80;99.90
32097;DHT22;18610;49.916;8.284;2024-02-26T01:09:58;7.80;99.90
32097;DHT22;18610;49.916;8.284;2024-02-26T01:12:25;7.80;99.90
32097;DHT22;18610;49.916;8.284;2024-02-26T01:14:53;7.80;99.90
32097;DHT22;18610;49.916;8.284;2024-02-26T01:17:20;7.80;99.90
32097;DHT22;18610;49.916;8.284;2024-02-26T01:19:46;7.80;99.90
32097;DHT22;18610;49.916;8.284;2024-02-26T01:22:13;7.90;99.90
32097;DHT22;18610;49.916;8.284;2024-02-26T01:24:40;7.80;99.90
32097;DHT22;18610;49.916;8.284;2024-02-26T01:27:06;7.90;99.90
32097;DHT22;18610;49.916;8.284;2024-02-26T01:29:34;7.90;99.90
32097;DHT22;18610;49.916;8.284;2024-02-26T01:32:02;7.90;99.90
32097;DHT22;18610;49.916;8.284;2024-02-26T01:34:30;7.90;99.90
32097;DHT22;18610;49.916;8.284;2024-02-26T01:36:57;7.90;99.90
32097;DHT22;18610;49.916;8.284;2024-02-26T01:39:23;7.90;99.90
32097;DHT22;18610;49.916;8.284;2024-02-26T01:41:50;7.80;99.90
32097;DHT22;18610;49.916;8.284;2024-02-26T01:44:17;7.80;99.90
32097;DHT22;18610;49.916;8.284;2024-02-26T01:46:44;7.80;99.90
32097;DHT22;18610;49.916;8.284;2024-02-26T01:49:12;7.80;99.90
32097;DHT22;18610;49.916;8.284;2024-02-26T01:51:40;7.80;99.90
32097;DHT22;18610;49.916;8.284;2024-02-26T01:54:08;7.80;99.90
32097;DHT22;18610;49.916;8.284;2024-02-26T01:56:35;7.80;99.90
32097;DHT22;18610;49.916;8.284;2024-02-26T01:59:04;7.80;99.90
32097;DHT22;18610;49.916;8.284;2024-02-26T02:01:32;7.80;99.90
32097;DHT22;18610;49.916;8.284;2024-02-26T02:04:00;7.80;99.90
32097;DHT22;18610;49.916;8.284;2024-02-26T02:06:28;7.80;99.90
32097;DHT22;18610;49.916;8.284;2024-02-26T02:08:55;7.70;99.90
32097;DHT22;18610;49.916;8.284;2024-02-26T02:11:22;7.70;99.90
32097;DHT22;18610;49.916;8.284;2024-02-26T02:13:49;7.60;99.90
32097;DHT22;18610;49.916;8.284;2024-02-26T02:16:16;7.60;99.90
32097;DHT22;18610;49.916;8.284;2024-02-26T02:18:43;7.60;99.90
32097;DHT22;18610;49.916;8.284;2024-02-26T02:21:11;7.60;99.90
32097;DHT22;18610;49.916;8.284;2024-02-26T02:23:37;7.60;99.90
32097;DHT22;18610;49.916;8.284;2024-02-26T02:26:04;7.60;99.90
32097;DHT22;18610;49.916;8.284;2024-02-26T02:28:30;7.50;99.90
32097;DHT22;18610;49.916;8.284;2024-02-26T02:30:57;7.50;99.90
32097;DHT22;18610;49.916;8.284;2024-02-26T02:33:25;7.50;99.90
32097;DHT22;18610;49.916;8.284;2024-02-26T02:35:52;7.50;99.90
32097;DHT22;18610;49.916;8.284;2024-02-26T02:38:21;7.50;99.90
32097;DHT22;18610;49.916;8.284;2024-02-26T02:40:49;7.50;99.90
32097;DHT22;18610;49.916;8.284;2024-02-26T02:43:15;7.50;99.90
32097;DHT22;18610;49.916;8.284;2024-02-26T02:45:42;7.50;99.90
32097;DHT22;18610;49.916;8.284;2024-02-26T02:48:09;7.50;99.90
32097;DHT22;18610;49.916;8.284;2024-02-26T02:50:37;7.50;99.90
32097;DHT22;18610;49.916;8.284;2024-02-26T02:53:04;7.50;99.90
32097;DHT22;18610;49.916;8.284;2024-02-26T02:55:32;7.60;99.90
32097;DHT22;18610;49.916;8.284;2024-02-26T02:57:59;7.60;99.90
32097;DHT22;18610;49.916;8.284;2024-02-26T03:00:25;7.60;99.90
32097;DHT22;18610;49.916;8.284;2024-02-26T03:02:52;7.60;99.90
32097;DHT22;18610;49.916;8.284;2024-02-26T03:05:18;7.60;99.90
32097;DHT22;18610;49.916;8.284;2024-02-26T03:07:45;7.60;99.90
32097;DHT22;18610;49.916;8.284;2024-02-26T03:10:12;7.70;99.90
32097;DHT22;18610;49.916;8.284;2024-02-26T03:12:40;7.70;99.90
32097;DHT22;18610;49.916;8.284;2024-02-26T03:15:07;7.70;99.90
32097;DHT22;18610;49.916;8.284;2024-02-26T03:17:34;7.70;99.90
32097;DHT22;18610;49.916;8.284;2024-02-26T03:20:01;7.70;99.90
32097;DHT22;18610;49.916;8.284;2024-02-26T03:22:29;7.70;99.90
32097;DHT22;18610;49.916;8.284;2024-02-26T03:24:55;7.70;99.90
32097;DHT22;18610;49.916;8.284;2024-02-26T03:27:22;7.70;99.90
32097;DHT22;18610;49.916;8.284;2024-02-26T03:29:50;7.70;99.90
32097;DHT22;18610;49.916;8.284;2024-02-26T03:32:18;7.70;99.90
32097;DHT22;18610;49.916;8.284;2024-02-26T03:34:44;7.60;99.90
32097;DHT22;18610;49.916;8.284;2024-02-26T03:37:11;7.50;99.90
32097;DHT22;18610;49.916;8.284;2024-02-26T03:39:38;7.50;99.90
32097;DHT22;18610;49.916;8.284;2024-02-26T03:42:05;7.50;99.90
32097;DHT22;18610;49.916;8.284;2024-02-26T03:44:31;7.40;99.90
32097;DHT22;18610;49.916;8.284;2024-02-26T03:46:59;7.40;99.90
32097;DHT22;18610;49.916;8.284;2024-02-26T03:49:26;7.40;99.90
32097;DHT22;18610;49.916;8.284;2024-02-26T03:51:53;7.40;99.90
32097;DHT22;18610;49.916;8.284;2024-02-26T03:54:19;7.30;99.90
32097;DHT22;18610;49.916;8.284;2024-02-26T03:56:46;7.30;99.90
32097;DHT22;18610;49.916;8.284;2024-02-26T03:59:12;7.20;99.90
32097;DHT22;18610;49.916;8.284;2024-02-26T04:01:44;7.30;99.90
32097;DHT22;18610;49.916;8.284;2024-02-26T04:04:12;7.20;99.90
32097;DHT22;18610;49.916;8.284;2024-02-26T04:06:39;7.20;99.90
32097;DHT22;18610;49.916;8.284;2024-02-26T04:09:07;7.10;99.90
32097;DHT22;18610;49.916;8.284;2024-02-26T04:11:35;7.20;99.90
32097;DHT22;18610;49.916;8.284;2024-02-26T04:14:02;7.10;99.90
32097;DHT22;18610;49.916;8.284;2024-02-26T04:16:29;7.10;99.90
32097;DHT22;18610;49.916;8.284;2024-02-26T04:18:56;7.00;99.90
32097;DHT22;18610;49.916;8.284;2024-02-26T04:21:24;7.00;99.90
32097;DHT22;18610;49.916;8.284;2024-02-26T04:23:50;7.00;99.90
32097;DHT22;18610;49.916;8.284;2024-02-26T04:26:20;7.00;99.90
32097;DHT22;18610;49.916;8.284;2024-02-26T04:28:47;7.00;99.90
32097;DHT22;18610;49.916;8.284;2024-02-26T04:31:14;7.00;99.90
32097;DHT22;18610;49.916;8.284;2024-02-26T04:33:40;7.00;99.90
32097;DHT22;18610;49.916;8.284;2024-02-26T04:36:12;7.00;99.90
32097;DHT22;18610;49.916;8.284;2024-02-26T04:38:40;7.00;99.90
32097;DHT22;18610;49.916;8.284;2024-02-26T04:41:07;7.00;99.90
32097;DHT22;18610;49.916;8.284;2024-02-26T04:43:34;7.00;99.90
32097;DHT22;18610;49.916;8.284;2024-02-26T04:46:06;7.00;99.90
32097;DHT22;18610;49.916;8.284;2024-02-26T04:48:33;7.00;99.90
32097;DHT22;18610;49.916;8.284;2024-02-26T04:51:00;7.00;99.90
32097;DHT22;18610;49.916;8.284;2024-02-26T04:53:27;7.00;99.90
32097;DHT22;18610;49.916;8.284;2024-02-26T04:55:55;7.00;99.90
32097;DHT22;18610;49.916;8.284;2024-02-26T04:58:21;7.00;99.90
32097;DHT22;18610;49.916;8.284;2024-02-26T05:00:48;7.00;99.90
32097;DHT22;18610;49.916;8.284;2024-02-26T05:03:15;7.00;99.90
32097;DHT22;18610;49.916;8.284;2024-02-26T05:05:42;6.90;99.90
32097;DHT22;18610;49.916;8.284;2024-02-26T05:08:09;6.90;99.90
32097;DHT22;18610;49.916;8.284;2024-02-26T05:10:36;6.90;99.90
32097;DHT22;18610;49.916;8.284;2024-02-26T05:13:06;6.90;99.90
32097;DHT22;18610;49.916;8.284;2024-02-26T05:15:33;6.90;99.90
32097;DHT22;18610;49.916;8.284;2024-02-26T05:17:59;6.90;99.90
32097;DHT22;18610;49.916;8.284;2024-02-26T05:20:26;6.90;99.90
32097;DHT22;18610;49.916;8.284;2024-02-26T05:22:53;6.90;99.90
32097;DHT22;18610;49.916;8.284;2024-02-26T05:25:20;6.90;99.90
32097;DHT22;18610;49.916;8.284;2024-02-26T05:27:46;7.00;99.90
32097;DHT22;18610;49.916;8.284;2024-02-26T05:30:15;7.00;99.90
32097;DHT22;18610;49.916;8.284;2024-02-26T05:32:41;6.90;99.90
32097;DHT22;18610;49.916;8.284;2024-02-26T05:35:08;6.90;99.90
32097;DHT22;18610;49.916;8.284;2024-02-26T05:37:35;6.90;99.90
32097;DHT22;18610;49.916;8.284;2024-02-26T05:40:02;6.90;99.90
32097;DHT22;18610;49.916;8.284;2024-02-26T05:42:30;6.90;99.90
32097;DHT22;18610;49.916;8.284;2024-02-26T05:44:57;6.90;99.90
32097;DHT22;18610;49.916;8.284;2024-02-26T05:47:25;6.90;99.90
32097;DHT22;18610;49.916;8.284;2024-02-26T05:49:51;7.00;99.90
32097;DHT22;18610;49.916;8.284;2024-02-26T05:52:18;7.00;99.90
32097;DHT22;18610;49.916;8.284;2024-02-26T05:54:44;7.00;99.90
32097;DHT22;18610;49.916;8.284;2024-02-26T05:57:11;7.00;99.90
32097;DHT22;18610;49.916;8.284;2024-02-26T05:59:38;7.00;99.90
32097;DHT22;18610;49.916;8.284;2024-02-26T06:02:04;7.00;99.90
32097;DHT22;18610;49.916;8.284;2024-02-26T06:04:32;7.00;99.90
32097;DHT22;18610;49.916;8.284;2024-02-26T06:06:59;7.00;99.90
32097;DHT22;18610;49.916;8.284;2024-02-26T06:09:26;7.00;99.90
32097;DHT22;18610;49.916;8.284;2024-02-26T06:11:52;7.00;99.90
32097;DHT22;18610;49.916;8.284;2024-02-26T06:14:19;7.00;99.90
32097;DHT22;18610;49.916;8.284;2024-02-26T06:16:46;7.00;99.90
32097;DHT22;18610;49.916;8.284;2024-02-26T06:19:13;7.00;99.90
32097;DHT22;18610;49.916;8.284;2024-02-26T06:21:41;7.00;99.90
32097;DHT22;18610;49.916;8.284;2024-02-26T06:24:08;7.00;99.90
32097;DHT22;18610;49.916;8.284;2024-02-26T06:26:34;7.00;99.90
32097;DHT22;18610;49.916;8.284;2024-02-26T06:29:01;7.00;99.90
32097;DHT22;18610;49.916;8.284;2024-02-26T06:31:28;7.00;99.90
32097;DHT22;18610;49.916;8.284;2024-02-26T06:33:54;7.00;99.90
32097;DHT22;18610;49.916;8.284;2024-02-26T06:36:21;7.00;99.90
32097;DHT22;18610;49.916;8.284;2024-02-26T06:38:49;7.00;99.90
32097;DHT22;18610;49.916;8.284;2024-02-26T06:41:17;7.00;99.90
32097;DHT22;18610;49.916;8.284;2024-02-26T06:43:44;7.00;99.90
32097;DHT22;18610;49.916;8.284;2024-02-26T06:46:10;7.10;99.90
32097;DHT22;18610;49.916;8.284;2024-02-26T06:48:37;7.00;99.90
32097;DHT22;18610;49.916;8.284;2024-02-26T06:51:04;7.10;99.90
32097;DHT22;18610;49.916;8.284;2024-02-26T06:53:30;7.10;99.90
32097;DHT22;18610;49.916;8.284;2024-02-26T06:55:58;7.10;99.90
32097;DHT22;18610;49.916;8.284;2024-02-26T06:58:25;7.10;99.90
32097;DHT22;18610;49.916;8.284;2024-02-26T07:00:52;7.10;99.90
32097;DHT22;18610;49.916;8.284;2024-02-26T07:03:18;7.20;99.90
32097;DHT22;18610;49.916;8.284;2024-02-26T07:05:45;7.20;99.90
32097;DHT22;18610;49.916;8.284;2024-02-26T07:08:12;7.20;99.90
32097;DHT22;18610;49.916;8.284;2024-02-26T07:10:38;7.20;99.90
32097;DHT22;18610;49.916;8.284;2024-02-26T07:13:06;7.20;99.90
32097;DHT22;18610;49.916;8.284;2024-02-26T07:15:33;7.30;99.90
32097;DHT22;18610;49.916;8.284;2024-02-26T07:18:00;7.30;99.90
32097;DHT22;18610;49.916;8.284;2024-02-26T07:20:28;7.30;99.90
32097;DHT22;18610;49.916;8.284;2024-02-26T07:22:55;7.30;99.90
32097;DHT22;18610;49.916;8.284;2024-02-26T07:25:22;7.30;99.90
32097;DHT22;18610;49.916;8.284;2024-02-26T07:27:49;7.30;99.90
32097;DHT22;18610;49.916;8.284;2024-02-26T07:30:18;7.30;99.90
32097;DHT22;18610;49.916;8.284;2024-02-26T07:32:44;7.40;99.90
32097;DHT22;18610;49.916;8.284;2024-02-26T07:35:11;7.40;99.90
32097;DHT22;18610;49.916;8.284;2024-02-26T07:37:38;7.40;99.90
32097;DHT22;18610;49.916;8.284;2024-02-26T07:40:05;7.40;99.90
32097;DHT22;18610;49.916;8.284;2024-02-26T07:42:33;7.40;99.90
32097;DHT22;18610;49.916;8.284;2024-02-26T07:45:00;7.40;99.90
32097;DHT22;18610;49.916;8.284;2024-02-26T07:47:28;7.50;99.90
32097;DHT22;18610;49.916;8.284;2024-02-26T07:49:55;7.50;99.90
32097;DHT22;18610;49.916;8.284;2024-02-26T07:52:21;7.50;99.90
32097;DHT22;18610;49.916;8.284;2024-02-26T07:54:48;7.50;99.90
32097;DHT22;18610;49.916;8.284;2024-02-26T07:57:15;7.60;99.90
32097;DHT22;18610;49.916;8.284;2024-02-26T07:59:42;7.60;99.90
32097;DHT22;18610;49.916;8.284;2024-02-26T08:02:10;7.60;99.90
32097;DHT22;18610;49.916;8.284;2024-02-26T08:04:38;7.70;99.90
32097;DHT22;18610;49.916;8.284;2024-02-26T08:07:05;7.60;99.90
32097;DHT22;18610;49.916;8.284;2024-02-26T08:09:32;7.60;99.90
32097;DHT22;18610;49.916;8.284;2024-02-26T08:11:59;7.60;99.90
32097;DHT22;18610;49.916;8.284;2024-02-26T08:14:25;7.60;99.90
32097;DHT22;18610;49.916;8.284;2024-02-26T08:16:52;7.60;99.90
32097;DHT22;18610;49.916;8.284;2024-02-26T08:19:18;7.60;99.90
32097;DHT22;18610;49.916;8.284;2024-02-26T08:21:46;7.60;99.90
32097;DHT22;18610;49.916;8.284;2024-02-26T08:24:13;7.60;99.90
32097;DHT22;18610;49.916;8.284;2024-02-26T08:26:40;7.60;99.90
32097;DHT22;18610;49.916;8.284;2024-02-26T08:29:06;7.60;99.90
32097;DHT22;18610;49.916;8.284;2024-02-26T08:31:33;7.60;99.90
32097;DHT22;18610;49.916;8.284;2024-02-26T08:34:02;7.60;99.90
32097;DHT22;18610;49.916;8.284;2024-02-26T08:36:30;7.60;99.90
32097;DHT22;18610;49.916;8.284;2024-02-26T08:38:58;7.60;99.90
32097;DHT22;18610;49.916;8.284;2024-02-26T08:41:28;7.60;99.90
32097;DHT22;18610;49.916;8.284;2024-02-26T08:43:54;7.60;99.90
32097;DHT22;18610;49.916;8.284;2024-02-26T08:46:21;7.60;99.90
32097;DHT22;18610;49.916;8.284;2024-02-26T08:48:48;7.60;99.90
32097;DHT22;18610;49.916;8.284;2024-02-26T08:51:14;7.60;99.90
32097;DHT22;18610;49.916;8.284;2024-02-26T08:53:41;7.60;99.90
32097;DHT22;18610;49.916;8.284;2024-02-26T08:56:09;7.70;99.90
32097;DHT22;18610;49.916;8.284;2024-02-26T08:58:42;7.70;99.90
32097;DHT22;18610;49.916;8.284;2024-02-26T09:01:08;7.70;99.90
32097;DHT22;18610;49.916;8.284;2024-02-26T09:03:35;7.70;99.90
32097;DHT22;18610;49.916;8.284;2024-02-26T09:06:02;7.80;99.90
32097;DHT22;18610;49.916;8.284;2024-02-26T09:08:29;7.80;99.90
32097;DHT22;18610;49.916;8.284;2024-02-26T09:10:56;7.80;99.90
32097;DHT22;18610;49.916;8.284;2024-02-26T09:13:24;7.90;99.90
32097;DHT22;18610;49.916;8.284;2024-02-26T09:15:51;7.90;99.90
32097;DHT22;18610;49.916;8.284;2024-02-26T09:18:17;8.00;99.90
32097;DHT22;18610;49.916;8.284;2024-02-26T09:20:44;8.10;99.90
32097;DHT22;18610;49.916;8.284;2024-02-26T09:23:11;8.10;99.90
32097;DHT22;18610;49.916;8.284;2024-02-26T09:25:37;8.20;99.90
32097;DHT22;18610;49.916;8.284;2024-02-26T09:28:04;8.30;99.90
32097;DHT22;18610;49.916;8.284;2024-02-26T09:30:32;8.30;99.90
32097;DHT22;18610;49.916;8.284;2024-02-26T09:32:59;8.40;99.90
32097;DHT22;18610;49.916;8.284;2024-02-26T09:35:26;8.40;99.90
32097;DHT22;18610;49.916;8.284;2024-02-26T09:37:53;8.50;99.90
32097;DHT22;18610;49.916;8.284;2024-02-26T09:40:19;8.50;99.90
32097;DHT22;18610;49.916;8.284;2024-02-26T09:42:47;8.60;99.90
32097;DHT22;18610;49.916;8.284;2024-02-26T09:45:18;8.60;99.90
32097;DHT22;18610;49.916;8.284;2024-02-26T09:47:48;8.80;99.90
32097;DHT22;18610;49.916;8.284;2024-02-26T09:50:17;8.90;99.90
32097;DHT22;18610;49.916;8.284;2024-02-26T09:52:48;9.00;99.90
32097;DHT22;18610;49.916;8.284;2024-02-26T09:55:15;9.10;99.90
32097;DHT22;18610;49.916;8.284;2024-02-26T09:57:45;9.20;99.90
32097;DHT22;18610;49.916;8.284;2024-02-26T10:00:16;9.20;99.90
32097;DHT22;18610;49.916;8.284;2024-02-26T10:02:46;9.20;99.90
32097;DHT22;18610;49.916;8.284;2024-02-26T10:05:14;9.20;99.90
32097;DHT22;18610;49.916;8.284;2024-02-26T10:07:44;9.20;99.90
32097;DHT22;18610;49.916;8.284;2024-02-26T10:10:11;9.20;99.90
32097;DHT22;18610;49.916;8.284;2024-02-26T10:12:37;9.20;99.90
32097;DHT22;18610;49.916;8.284;2024-02-26T10:15:04;9.20;99.90
32097;DHT22;18610;49.916;8.284;2024-02-26T10:17:31;9.20;99.90
32097;DHT22;18610;49.916;8.284;2024-02-26T10:20:12;9.20;99.90
32097;DHT22;18610;49.916;8.284;2024-02-26T10:22:41;9.20;99.90
32097;DHT22;18610;49.916;8.284;2024-02-26T10:25:08;9.20;99.90
32097;DHT22;18610;49.916;8.284;2024-02-26T10:27:35;9.20;99.90
32097;DHT22;18610;49.916;8.284;2024-02-26T10:30:03;9.30;99.90
32097;DHT22;18610;49.916;8.284;2024-02-26T10:32:30;9.30;99.90
32097;DHT22;18610;49.916;8.284;2024-02-26T10:34:57;9.30;99.90
32097;DHT22;18610;49.916;8.284;2024-02-26T10:37:25;9.30;99.90
32097;DHT22;18610;49.916;8.284;2024-02-26T10:39:52;9.30;99.90
32097;DHT22;18610;49.916;8.284;2024-02-26T10:42:19;9.30;99.90
32097;DHT22;18610;49.916;8.284;2024-02-26T10:44:46;9.30;99.90
32097;DHT22;18610;49.916;8.284;2024-02-26T10:47:14;9.30;99.90
32097;DHT22;18610;49.916;8.284;2024-02-26T10:49:45;9.30;99.90
32097;DHT22;18610;49.916;8.284;2024-02-26T10:52:14;9.30;99.90
32097;DHT22;18610;49.916;8.284;2024-02-26T10:54:44;9.30;99.90
32097;DHT22;18610;49.916;8.284;2024-02-26T10:57:13;9.30;99.90
32097;DHT22;18610;49.916;8.284;2024-02-26T10:59:41;9.30;99.90
32097;DHT22;18610;49.916;8.284;2024-02-26T11:02:10;9.30;99.90
32097;DHT22;18610;49.916;8.284;2024-02-26T11:04:38;9.30;99.90
32097;DHT22;18610;49.916;8.284;2024-02-26T11:07:05;9.30;99.90
32097;DHT22;18610;49.916;8.284;2024-02-26T11:09:34;9.40;99.90
32097;DHT22;18610;49.916;8.284;2024-02-26T11:12:04;9.50;99.90
32097;DHT22;18610;49.916;8.284;2024-02-26T11:14:36;9.50;99.90
32097;DHT22;18610;49.916;8.284;2024-02-26T11:17:04;9.60;99.90
32097;DHT22;18610;49.916;8.284;2024-02-26T11:19:35;9.70;99.90
32097;DHT22;18610;49.916;8.284;2024-02-26T11:22:02;9.80;99.90
32097;DHT22;18610;49.916;8.284;2024-02-26T11:24:29;9.90;99.90
32097;DHT22;18610;49.916;8.284;2024-02-26T11:26:58;10.10;99.90
32097;DHT22;18610;49.916;8.284;2024-02-26T11:29:32;10.20;99.90
32097;DHT22;18610;49.916;8.284;2024-02-26T11:32:00;10.40;99.90
32097;DHT22;18610;49.916;8.284;2024-02-26T11:34:27;10.50;99.90
32097;DHT22;18610;49.916;8.284;2024-02-26T11:36:55;10.60;99.90
32097;DHT22;18610;49.916;8.284;2024-02-26T11:39:23;10.80;99.90
32097;DHT22;18610;49.916;8.284;2024-02-26T11:41:50;10.90;99.90
32097;DHT22;18610;49.916;8.284;2024-02-26T11:44:30;11.10;99.90
32097;DHT22;18610;49.916;8.284;2024-02-26T11:46:56;11.20;99.90
32097;DHT22;18610;49.916;8.284;2024-02-26T11:49:31;11.40;99.90
32097;DHT22;18610;49.916;8.284;2024-02-26T11:51:58;11.50;99.90
32097;DHT22;18610;49.916;8.284;2024-02-26T11:54:39;11.60;99.90
32097;DHT22;18610;49.916;8.284;2024-02-26T11:59:56;11.60;99.90
32097;DHT22;18610;49.916;8.284;2024-02-26T12:02:40;11.60;99.90
32097;DHT22;18610;49.916;8.284;2024-02-26T12:05:07;11.50;99.90
32097;DHT22;18610;49.916;8.284;2024-02-26T12:07:35;11.40;99.90
32097;DHT22;18610;49.916;8.284;2024-02-26T12:10:23;11.40;99.90
32097;DHT22;18610;49.916;8.284;2024-02-26T12:13:10;11.30;99.90
32097;DHT22;18610;49.916;8.284;2024-02-26T12:15:41;11.20;99.90
32097;DHT22;18610;49.916;8.284;2024-02-26T12:18:09;11.20;99.90
32097;DHT22;18610;49.916;8.284;2024-02-26T12:20:36;11.20;99.90
32097;DHT22;18610;49.916;8.284;2024-02-26T12:23:04;11.20;99.90
32097;DHT22;18610;49.916;8.284;2024-02-26T12:25:31;11.20;99.90
32097;DHT22;18610;49.916;8.284;2024-02-26T12:27:59;11.20;99.90
32097;DHT22;18610;49.916;8.284;2024-02-26T12:30:26;11.30;99.90
32097;DHT22;18610;49.916;8.284;2024-02-26T12:32:56;11.30;99.90
32097;DHT22;18610;49.916;8.284;2024-02-26T12:35:24;11.50;99.90
32097;DHT22;18610;49.916;8.284;2024-02-26T12:37:51;11.60;99.90
32097;DHT22;18610;49.916;8.284;2024-02-26T12:40:19;11.70;99.90
32097;DHT22;18610;49.916;8.284;2024-02-26T12:42:46;11.90;99.90
32097;DHT22;18610;49.916;8.284;2024-02-26T12:45:13;12.10;99.90
32097;DHT22;18610;49.916;8.284;2024-02-26T12:47:42;12.40;99.90
32097;DHT22;18610;49.916;8.284;2024-02-26T12:50:10;12.50;99.90
32097;DHT22;18610;49.916;8.284;2024-02-26T12:52:39;12.70;99.90
32097;DHT22;18610;49.916;8.284;2024-02-26T12:55:07;13.00;99.90
32097;DHT22;18610;49.916;8.284;2024-02-26T12:57:36;13.30;99.90
32097;DHT22;18610;49.916;8.284;2024-02-26T13:00:05;13.80;99.90
32097;DHT22;18610;49.916;8.284;2024-02-26T13:02:35;14.20;99.90
32097;DHT22;18610;49.916;8.284;2024-02-26T13:05:03;14.70;99.90
32097;DHT22;18610;49.916;8.284;2024-02-26T13:07:32;15.00;99.90
32097;DHT22;18610;49.916;8.284;2024-02-26T13:09:59;15.40;99.90
32097;DHT22;18610;49.916;8.284;2024-02-26T13:12:26;15.60;99.90
32097;DHT22;18610;49.916;8.284;2024-02-26T13:14:59;15.70;99.90
32097;DHT22;18610;49.916;8.284;2024-02-26T13:17:26;15.60;99.90
32097;DHT22;18610;49.916;8.284;2024-02-26T13:19:53;15.50;99.90
32097;DHT22;18610;49.916;8.284;2024-02-26T13:22:21;15.80;99.90
32097;DHT22;18610;49.916;8.284;2024-02-26T13:24:55;16.10;99.90
32097;DHT22;18610;49.916;8.284;2024-02-26T13:27:22;16.80;99.90
32097;DHT22;18610;49.916;8.284;2024-02-26T13:30:01;17.30;99.90
32097;DHT22;18610;49.916;8.284;2024-02-26T13:32:28;17.40;99.90
32097;DHT22;18610;49.916;8.284;2024-02-26T13:35:04;17.60;99.90
32097;DHT22;18610;49.916;8.284;2024-02-26T13:37:31;17.90;99.90
32097;DHT22;18610;49.916;8.284;2024-02-26T13:40:00;18.10;99.10
32097;DHT22;18610;49.916;8.284;2024-02-26T13:42:29;18.00;98.90
32097;DHT22;18610;49.916;8.284;2024-02-26T13:44:56;17.60;99.00
32097;DHT22;18610;49.916;8.284;2024-02-26T13:47:23;17.20;98.70
32097;DHT22;18610;49.916;8.284;2024-02-26T13:49:49;16.80;99.40
32097;DHT22;18610;49.916;8.284;2024-02-26T13:52:19;16.30;99.90
32097;DHT22;18610;49.916;8.284;2024-02-26T13:54:46;15.90;99.90
32097;DHT22;18610;49.916;8.284;2024-02-26T13:57:14;15.40;99.90
32097;DHT22;18610;49.916;8.284;2024-02-26T13:59:41;15.10;99.90
32097;DHT22;18610;49.916;8.284;2024-02-26T14:02:08;14.70;99.90
32097;DHT22;18610;49.916;8.284;2024-02-26T14:04:34;14.50;99.90
32097;DHT22;18610;49.916;8.284;2024-02-26T14:07:01;14.30;99.90
32097;DHT22;18610;49.916;8.284;2024-02-26T14:09:28;14.10;99.90
32097;DHT22;18610;49.916;8.284;2024-02-26T14:11:55;13.90;99.90
32097;DHT22;18610;49.916;8.284;2024-02-26T14:14:23;13.80;99.90
32097;DHT22;18610;49.916;8.284;2024-02-26T14:16:50;13.60;99.90
32097;DHT22;18610;49.916;8.284;2024-02-26T14:19:17;13.50;99.90
32097;DHT22;18610;49.916;8.284;2024-02-26T14:21:44;13.40;99.90
32097;DHT22;18610;49.916;8.284;2024-02-26T14:24:10;13.40;99.90
32097;DHT22;18610;49.916;8.284;2024-02-26T14:26:37;13.30;99.90
32097;DHT22;18610;49.916;8.284;2024-02-26T14:29:04;13.20;99.90
32097;DHT22;18610;49.916;8.284;2024-02-26T14:31:32;13.20;99.90
32097;DHT22;18610;49.916;8.284;2024-02-26T14:33:58;13.20;99.90
32097;DHT22;18610;49.916;8.284;2024-02-26T14:36:25;13.10;99.90
32097;DHT22;18610;49.916;8.284;2024-02-26T14:38:52;13.10;99.90
32097;DHT22;18610;49.916;8.284;2024-02-26T14:41:19;13.00;99.90
32097;DHT22;18610;49.916;8.284;2024-02-26T14:43:45;12.90;99.90
32097;DHT22;18610;49.916;8.284;2024-02-26T14:46:12;12.90;99.90
32097;DHT22;18610;49.916;8.284;2024-02-26T14:48:40;12.80;99.90
32097;DHT22;18610;49.916;8.284;2024-02-26T14:51:07;12.80;99.90
32097;DHT22;18610;49.916;8.284;2024-02-26T14:53:33;12.80;99.90
32097;DHT22;18610;49.916;8.284;2024-02-26T14:56:00;12.60;99.90
32097;DHT22;18610;49.916;8.284;2024-02-26T14:58:27;12.50;99.90
32097;DHT22;18610;49.916;8.284;2024-02-26T15:00:53;12.50;99.90
32097;DHT22;18610;49.916;8.284;2024-02-26T15:03:20;12.50;99.90
32097;DHT22;18610;49.916;8.284;2024-02-26T15:05:48;12.40;99.90
32097;DHT22;18610;49.916;8.284;2024-02-26T15:08:15;12.40;99.90
32097;DHT22;18610;49.916;8.284;2024-02-26T15:10:43;12.40;99.90
32097;DHT22;18610;49.916;8.284;2024-02-26T15:13:13;12.30;99.90
32097;DHT22;18610;49.916;8.284;2024-02-26T15:15:40;12.30;99.90
32097;DHT22;18610;49.916;8.284;2024-02-26T15:18:07;12.30;99.90
32097;DHT22;18610;49.916;8.284;2024-02-26T15:20:34;12.30;99.90
32097;DHT22;18610;49.916;8.284;2024-02-26T15:23:03;12.20;99.90
32097;DHT22;18610;49.916;8.284;2024-02-26T15:25:30;12.20;99.90
32097;DHT22;18610;49.916;8.284;2024-02-26T15:27:56;12.10;99.90
32097;DHT22;18610;49.916;8.284;2024-02-26T15:30:23;12.10;99.90
32097;DHT22;18610;49.916;8.284;2024-02-26T15:32:50;12.00;99.90
32097;DHT22;18610;49.916;8.284;2024-02-26T15:35:17;12.00;99.90
32097;DHT22;18610;49.916;8.284;2024-02-26T15:37:43;11.90;99.90
32097;DHT22;18610;49.916;8.284;2024-02-26T15:40:12;11.80;99.90
32097;DHT22;18610;49.916;8.284;2024-02-26T15:42:38;11.80;99.90
32097;DHT22;18610;49.916;8.284;2024-02-26T15:45:06;11.80;99.90
32097;DHT22;18610;49.916;8.284;2024-02-26T15:47:33;11.70;99.90